createdAt,value
2023-03-27T00:02:23.329Z,10.40
2023-03-27T00:04:50.582Z,10.40
2023-03-27T00:07:17.410Z,10.50
2023-03-27T00:09:44.326Z,10.50
2023-03-27T00:12:11.210Z,10.50
2023-03-27T00:14:37.968Z,10.50
2023-03-27T00:17:05.169Z,10.50
2023-03-27T00:19:34.001Z,10.50
2023-03-27T00:22:01.197Z,10.50
2023-03-27T00:24:28.376Z,10.40
2023-03-27T00:26:55.392Z,10.40
2023-03-27T00:29:22.230Z,10.40
2023-03-27T00:31:49.126Z,10.40
2023-03-27T00:34:16.042Z,10.30
2023-03-27T00:36:43.806Z,10.30
2023-03-27T00:39:11.265Z,10.20
2023-03-27T00:41:38.190Z,10.20
2023-03-27T00:44:27.557Z,10.20
2023-03-27T00:46:57.134Z,10.20
2023-03-27T00:49:27.444Z,10.20
2023-03-27T00:51:54.536Z,10.20
2023-03-27T00:54:26.683Z,10.10
2023-03-27T00:56:58.013Z,10.10
2023-03-27T00:59:31.136Z,10.00
2023-03-27T01:02:02.844Z,9.90
2023-03-27T01:04:31.589Z,9.80
2023-03-27T01:06:59.117Z,9.90
2023-03-27T01:09:27.202Z,9.90
2023-03-27T01:12:15.510Z,9.90
2023-03-27T01:14:45.985Z,9.90
2023-03-27T01:17:34.680Z,9.80
2023-03-27T01:20:14.345Z,9.70
2023-03-27T01:23:07.175Z,9.70
2023-03-27T01:26:04.388Z,9.60
2023-03-27T01:29:08.026Z,9.50
2023-03-27T01:32:00.270Z,9.40
2023-03-27T01:35:14.675Z,9.40
2023-03-27T01:38:12.693Z,9.50
2023-03-27T01:40:51.094Z,9.40
2023-03-27T01:43:33.472Z,9.40
2023-03-27T01:46:26.914Z,9.40
2023-03-27T01:49:04.089Z,9.40
2023-03-27T01:51:37.932Z,9.40
2023-03-27T01:54:16.043Z,9.40
2023-03-27T01:57:04.249Z,9.30
2023-03-27T01:59:35.944Z,9.10
2023-03-27T02:02:14.750Z,9.00
2023-03-27T02:04:47.706Z,9.10
2023-03-27T02:07:19.936Z,9.10
2023-03-27T02:09:51.200Z,9.20
2023-03-27T02:12:25.791Z,9.20
2023-03-27T02:15:22.381Z,9.30
2023-03-27T02:17:57.102Z,9.40
2023-03-27T02:20:24.239Z,9.40
2023-03-27T02:22:51.518Z,9.40
2023-03-27T02:25:34.077Z,9.50
2023-03-27T02:28:20.932Z,9.40
2023-03-27T02:31:33.227Z,9.40
2023-03-27T02:34:12.034Z,9.30
2023-03-27T02:36:57.672Z,9.30
2023-03-27T02:39:42.114Z,9.20
2023-03-27T02:42:27.898Z,9.10
2023-03-27T02:45:11.317Z,9.10
2023-03-27T02:47:42.947Z,9.00
2023-03-27T02:50:19.348Z,9.10
2023-03-27T02:52:52.648Z,9.20
2023-03-27T02:55:23.647Z,9.20
2023-03-27T02:57:59.520Z,9.20
2023-03-27T03:00:33.810Z,9.20
2023-03-27T03:03:36.249Z,9.20
2023-03-27T03:06:07.162Z,9.00
2023-03-27T03:08:38.722Z,8.90
2023-03-27T03:11:10.232Z,8.90
2023-03-27T03:13:38.540Z,8.80
2023-03-27T03:16:05.950Z,8.80
2023-03-27T03:18:32.726Z,8.70
2023-03-27T03:21:00.140Z,8.70
2023-03-27T03:23:27.178Z,8.60
2023-03-27T03:25:56.771Z,8.60
2023-03-27T03:28:27.410Z,8.60
2023-03-27T03:30:55.144Z,8.70
2023-03-27T03:33:22.472Z,8.70
2023-03-27T03:35:50.824Z,8.70
2023-03-27T03:38:28.022Z,8.60
2023-03-27T03:40:56.428Z,8.50
2023-03-27T03:43:26.370Z,8.40
2023-03-27T03:45:54.218Z,8.30
2023-03-27T03:48:22.267Z,8.30
2023-03-27T03:50:50.022Z,8.30
2023-03-27T03:53:19.448Z,8.40
2023-03-27T03:55:49.298Z,8.50
2023-03-27T03:58:16.477Z,8.60
2023-03-27T04:00:43.627Z,8.60
2023-03-27T04:03:10.837Z,8.60
2023-03-27T04:05:38.540Z,8.60
2023-03-27T04:08:08.981Z,8.60
2023-03-27T04:10:41.332Z,8.60
2023-03-27T04:13:08.707Z,8.60
2023-03-27T04:15:35.664Z,8.60
2023-03-27T04:18:03.277Z,8.70
2023-03-27T04:20:34.718Z,8.80
2023-03-27T04:23:04.883Z,8.70
2023-03-27T04:25:32.186Z,8.60
2023-03-27T04:27:59.082Z,8.60
2023-03-27T04:30:27.706Z,8.70
2023-03-27T04:32:55.025Z,8.70
2023-03-27T04:35:22.044Z,8.60
2023-03-27T04:37:48.909Z,8.60
2023-03-27T04:40:20.020Z,8.70
2023-03-27T04:42:46.803Z,8.70
2023-03-27T04:45:23.418Z,8.80
2023-03-27T04:47:50.358Z,8.70
2023-03-27T04:50:18.009Z,8.70
2023-03-27T04:52:48.406Z,8.70
2023-03-27T04:55:16.824Z,8.70
2023-03-27T04:57:47.808Z,8.70
2023-03-27T05:00:16.365Z,8.70
2023-03-27T05:02:43.424Z,8.70
2023-03-27T05:05:10.468Z,8.70
2023-03-27T05:07:37.864Z,8.70
2023-03-27T05:10:06.085Z,8.60
2023-03-27T05:12:33.382Z,8.60
2023-03-27T05:15:00.639Z,8.50
2023-03-27T05:17:27.511Z,8.60
2023-03-27T05:19:54.284Z,8.60
2023-03-27T05:22:21.820Z,8.60
2023-03-27T05:24:48.625Z,8.60
2023-03-27T05:27:15.387Z,8.60
2023-03-27T05:29:47.444Z,8.70
2023-03-27T05:32:14.822Z,8.70
2023-03-27T05:34:42.425Z,8.80
2023-03-27T05:37:09.588Z,8.80
2023-03-27T05:39:36.923Z,8.90
2023-03-27T05:42:04.163Z,9.00
2023-03-27T05:44:31.151Z,9.00
2023-03-27T05:46:58.339Z,9.10
2023-03-27T05:49:25.479Z,9.10
2023-03-27T05:51:52.727Z,9.20
2023-03-27T05:54:19.520Z,9.20
2023-03-27T05:56:46.641Z,9.30
2023-03-27T05:59:13.511Z,9.30
2023-03-27T06:01:40.406Z,9.30
2023-03-27T06:04:09.382Z,9.40
2023-03-27T06:06:36.442Z,9.40
2023-03-27T06:09:03.844Z,9.40
2023-03-27T06:11:30.899Z,9.50
2023-03-27T06:13:58.716Z,9.50
2023-03-27T06:16:25.901Z,9.50
2023-03-27T06:18:53.128Z,9.60
2023-03-27T06:21:22.459Z,9.70
2023-03-27T06:23:49.268Z,9.70
2023-03-27T06:26:16.056Z,9.60
2023-03-27T06:28:42.854Z,9.60
2023-03-27T06:31:09.751Z,9.60
2023-03-27T06:33:37.208Z,9.60
2023-03-27T06:36:05.415Z,9.60
2023-03-27T06:38:33.006Z,9.70
2023-03-27T06:41:00.114Z,9.60
2023-03-27T06:43:27.002Z,9.60
2023-03-27T06:45:54.075Z,9.60
2023-03-27T06:48:22.551Z,9.60
2023-03-27T06:50:51.303Z,9.60
2023-03-27T06:53:27.271Z,9.70
2023-03-27T06:55:55.938Z,9.70
2023-03-27T06:58:23.061Z,9.80
2023-03-27T07:00:50.352Z,9.80
2023-03-27T07:03:18.540Z,9.80
2023-03-27T07:05:45.868Z,9.60
2023-03-27T07:08:24.292Z,9.60
2023-03-27T07:11:00.417Z,9.60
2023-03-27T07:13:37.459Z,9.70
2023-03-27T07:16:04.558Z,9.60
2023-03-27T07:18:31.685Z,9.60
2023-03-27T07:20:58.692Z,9.40
2023-03-27T07:23:25.716Z,9.40
2023-03-27T07:25:58.052Z,9.40
2023-03-27T07:28:25.081Z,9.40
2023-03-27T07:30:51.894Z,9.30
2023-03-27T07:33:19.264Z,9.30
2023-03-27T07:35:48.224Z,9.40
2023-03-27T07:38:16.730Z,9.40
2023-03-27T07:40:46.127Z,9.50
2023-03-27T07:43:13.594Z,9.40
2023-03-27T07:45:42.021Z,9.50
2023-03-27T07:48:14.036Z,9.50
2023-03-27T07:50:40.773Z,9.50
2023-03-27T07:53:07.756Z,9.60
2023-03-27T07:55:37.772Z,9.70
2023-03-27T07:58:06.984Z,9.70
2023-03-27T08:00:38.888Z,9.70
2023-03-27T08:03:11.586Z,9.70
2023-03-27T08:05:38.636Z,9.80
2023-03-27T08:08:05.782Z,9.80
2023-03-27T08:10:32.671Z,9.80
2023-03-27T08:12:59.622Z,9.90
2023-03-27T08:15:26.576Z,9.90
2023-03-27T08:17:55.465Z,10.00
2023-03-27T08:20:23.987Z,10.10
2023-03-27T08:22:54.023Z,10.10
2023-03-27T08:25:22.742Z,10.20
2023-03-27T08:27:49.950Z,10.10
2023-03-27T08:30:17.540Z,10.10
2023-03-27T08:32:45.066Z,10.10
2023-03-27T08:35:13.594Z,10.10
2023-03-27T08:37:41.418Z,10.00
2023-03-27T08:40:19.495Z,9.90
2023-03-27T08:42:48.703Z,9.80
2023-03-27T08:45:36.280Z,9.90
2023-03-27T08:48:11.061Z,9.90
2023-03-27T08:51:04.437Z,10.00
2023-03-27T08:53:53.085Z,10.10
2023-03-27T08:56:21.184Z,9.90
2023-03-27T08:58:48.898Z,10.00
2023-03-27T09:01:35.471Z,10.00
2023-03-27T09:04:12.973Z,10.00
2023-03-27T09:07:04.408Z,9.90
2023-03-27T09:09:52.841Z,10.00
2023-03-27T09:12:42.065Z,10.10
2023-03-27T09:15:39.848Z,10.10
2023-03-27T09:18:39.220Z,10.00
2023-03-27T09:21:15.290Z,9.90
2023-03-27T09:23:46.857Z,9.80
2023-03-27T09:26:20.573Z,9.90
2023-03-27T09:29:07.284Z,9.80
2023-03-27T09:31:40.155Z,9.80
2023-03-27T09:34:12.731Z,9.80
2023-03-27T09:36:39.647Z,9.60
2023-03-27T09:39:16.355Z,9.70
2023-03-27T09:41:49.120Z,9.80
2023-03-27T09:44:25.607Z,9.90
2023-03-27T09:47:04.445Z,9.90
2023-03-27T09:49:32.689Z,9.90
2023-03-27T09:52:00.287Z,9.80
2023-03-27T09:54:32.613Z,9.70
2023-03-27T09:57:11.267Z,9.80
2023-03-27T09:59:59.803Z,9.70
2023-03-27T10:02:29.756Z,9.70
2023-03-27T10:05:11.997Z,9.70
2023-03-27T10:07:41.551Z,9.60
2023-03-27T10:10:15.654Z,9.60
2023-03-27T10:12:43.734Z,9.40
2023-03-27T10:15:41.123Z,9.40
2023-03-27T10:18:25.065Z,9.30
2023-03-27T10:20:54.281Z,9.30
2023-03-27T10:23:29.536Z,9.10
2023-03-27T10:26:01.729Z,9.20
2023-03-27T10:28:34.614Z,9.20
2023-03-27T10:31:04.230Z,9.20
2023-03-27T10:33:32.123Z,9.20
2023-03-27T10:35:59.903Z,9.20
2023-03-27T10:38:27.773Z,9.20
2023-03-27T10:40:56.318Z,9.30
2023-03-27T10:43:36.418Z,9.50
2023-03-27T10:46:08.311Z,9.40
2023-03-27T10:49:01.287Z,9.50
2023-03-27T10:51:47.026Z,9.30
2023-03-27T10:54:51.561Z,9.20
2023-03-27T10:57:35.877Z,9.00
2023-03-27T11:00:32.806Z,9.20
2023-03-27T11:03:28.221Z,9.30
2023-03-27T11:05:56.899Z,9.50
2023-03-27T11:08:27.420Z,9.50
2023-03-27T11:11:01.665Z,9.50
2023-03-27T11:13:34.696Z,9.50
2023-03-27T11:16:12.967Z,9.50
2023-03-27T11:18:45.584Z,9.50
2023-03-27T11:21:17.931Z,9.60
2023-03-27T11:23:57.908Z,9.60
2023-03-27T11:26:32.405Z,9.60
2023-03-27T11:29:23.023Z,9.80
2023-03-27T11:31:52.628Z,9.90
2023-03-27T11:34:42.742Z,9.80
2023-03-27T11:37:24.631Z,9.90
2023-03-27T11:39:54.986Z,9.60
2023-03-27T11:42:26.638Z,9.40
2023-03-27T11:44:53.581Z,9.40
2023-03-27T11:47:39.012Z,9.20
2023-03-27T11:50:22.196Z,9.30
2023-03-27T11:53:11.614Z,9.20
2023-03-27T11:55:49.227Z,9.20
2023-03-27T11:58:34.866Z,9.10
2023-03-27T12:01:08.129Z,9.10
2023-03-27T12:04:03.416Z,8.90
2023-03-27T12:06:49.631Z,9.20
2023-03-27T12:09:40.448Z,9.30
2023-03-27T12:12:11.016Z,9.20
2023-03-27T12:14:50.357Z,9.20
2023-03-27T12:17:42.561Z,9.30
2023-03-27T12:20:21.556Z,9.40
2023-03-27T12:22:54.064Z,9.50
2023-03-27T12:25:23.848Z,9.40
2023-03-27T12:28:22.724Z,9.50
2023-03-27T12:30:52.788Z,9.60
2023-03-27T12:33:45.009Z,9.50
2023-03-27T12:36:16.509Z,9.30
2023-03-27T12:38:44.220Z,9.30
2023-03-27T12:41:25.527Z,9.40
2023-03-27T12:44:00.750Z,9.30
2023-03-27T12:46:28.441Z,9.30
2023-03-27T12:49:21.655Z,9.30
2023-03-27T12:51:54.487Z,9.30
2023-03-27T12:54:28.629Z,9.60
2023-03-27T12:57:25.076Z,9.70
2023-03-27T12:59:59.055Z,9.90
2023-03-27T13:03:08.245Z,9.80
2023-03-27T13:06:04.073Z,9.80
2023-03-27T13:08:42.066Z,9.80
2023-03-27T13:11:26.218Z,9.80
2023-03-27T13:14:34.073Z,9.50
2023-03-27T13:17:48.229Z,9.30
2023-03-27T13:20:53.579Z,9.20
2023-03-27T13:23:40.908Z,9.50
2023-03-27T13:29:23.375Z,9.60
2023-03-27T13:31:50.286Z,9.60
2023-03-27T13:34:42.583Z,9.60
2023-03-27T13:37:15.504Z,9.70
2023-03-27T13:40:02.119Z,9.70
2023-03-27T13:42:37.475Z,9.70
2023-03-27T13:45:09.597Z,9.70
2023-03-27T13:48:16.258Z,9.70
2023-03-27T13:50:54.855Z,9.80
2023-03-27T13:53:37.794Z,9.40
2023-03-27T13:56:13.597Z,9.30
2023-03-27T13:58:54.123Z,9.50
2023-03-27T14:01:28.173Z,9.50
2023-03-27T14:04:39.897Z,9.50
2023-03-27T14:07:28.362Z,9.40
2023-03-27T14:10:16.418Z,9.50
2023-03-27T14:13:02.031Z,9.50
2023-03-27T14:16:05.447Z,9.60
2023-03-27T14:19:09.650Z,9.60
2023-03-27T14:21:58.752Z,9.40
2023-03-27T14:24:38.479Z,9.40
2023-03-27T14:27:11.061Z,9.40
2023-03-27T14:29:38.141Z,9.30
2023-03-27T14:32:06.699Z,9.00
2023-03-27T14:34:43.410Z,9.20
2023-03-27T14:37:36.091Z,9.20
2023-03-27T14:40:20.115Z,9.20
2023-03-27T14:42:49.734Z,9.30
2023-03-27T14:45:23.905Z,9.00
2023-03-27T14:47:55.680Z,9.10
2023-03-27T14:50:24.844Z,9.10
2023-03-27T14:52:53.713Z,9.00
2023-03-27T14:55:23.632Z,8.90
2023-03-27T14:57:59.027Z,9.00
2023-03-27T15:00:27.691Z,8.80
2023-03-27T15:02:55.335Z,8.40
2023-03-27T15:05:23.111Z,7.90
2023-03-27T15:07:50.320Z,8.10
2023-03-27T15:10:24.423Z,8.40
2023-03-27T15:12:51.614Z,8.40
2023-03-27T15:15:38.514Z,8.40
2023-03-27T15:18:13.250Z,8.40
2023-03-27T15:20:41.086Z,8.10
2023-03-27T15:23:13.012Z,8.00
2023-03-27T15:25:46.060Z,8.10
2023-03-27T15:28:24.769Z,7.90
2023-03-27T15:30:58.139Z,7.90
2023-03-27T15:33:41.372Z,8.00
2023-03-27T15:36:22.505Z,7.80
2023-03-27T15:38:51.154Z,7.90
2023-03-27T15:41:18.158Z,7.80
2023-03-27T15:43:45.087Z,7.60
2023-03-27T15:46:20.171Z,7.50
2023-03-27T15:48:51.354Z,7.40
2023-03-27T15:51:21.194Z,7.50
2023-03-27T15:53:50.934Z,7.60
2023-03-27T15:56:34.511Z,7.50
2023-03-27T15:59:10.499Z,7.70
2023-03-27T16:01:53.343Z,7.80
2023-03-27T16:04:26.488Z,7.70
2023-03-27T16:07:05.808Z,7.90
2023-03-27T16:09:46.236Z,7.90
2023-03-27T16:12:25.942Z,7.70
2023-03-27T16:14:57.150Z,7.40
2023-03-27T16:17:45.008Z,7.30
2023-03-27T16:20:12.796Z,7.30
2023-03-27T16:22:40.562Z,7.50
2023-03-27T16:25:10.052Z,7.50
2023-03-27T16:27:43.501Z,7.40
2023-03-27T16:30:26.810Z,7.40
2023-03-27T16:32:53.938Z,7.40
2023-03-27T16:35:21.089Z,7.30
2023-03-27T16:37:48.647Z,7.20
2023-03-27T16:40:15.776Z,7.20
2023-03-27T16:42:42.642Z,7.10
2023-03-27T16:45:09.752Z,7.10
2023-03-27T16:47:36.743Z,7.00
2023-03-27T16:52:34.452Z,7.10
2023-03-27T16:55:02.532Z,7.20
2023-03-27T16:57:29.945Z,7.30
2023-03-27T16:59:56.707Z,7.30
2023-03-27T17:02:25.534Z,7.30
2023-03-27T17:04:52.635Z,7.40
2023-03-27T17:07:19.668Z,7.50
2023-03-27T17:09:46.530Z,7.50
2023-03-27T17:12:13.467Z,7.50
2023-03-27T17:14:40.613Z,7.40
2023-03-27T17:17:07.464Z,7.30
2023-03-27T17:19:34.300Z,7.40
2023-03-27T17:22:01.089Z,7.50
2023-03-27T17:24:27.877Z,7.60
2023-03-27T17:26:54.680Z,7.30
2023-03-27T17:29:21.722Z,7.30
2023-03-27T17:31:48.679Z,7.20
2023-03-27T17:34:15.741Z,7.10
2023-03-27T17:36:47.453Z,7.10
2023-03-27T17:39:21.184Z,7.10
2023-03-27T17:41:49.134Z,7.10
2023-03-27T17:44:16.052Z,7.20
2023-03-27T17:46:43.135Z,7.30
2023-03-27T17:49:11.025Z,7.20
2023-03-27T17:51:37.897Z,7.30
2023-03-27T17:54:04.977Z,7.30
2023-03-27T17:56:31.973Z,7.30
2023-03-27T17:58:58.903Z,7.40
2023-03-27T18:01:25.772Z,7.20
2023-03-27T18:03:53.142Z,7.10
2023-03-27T18:06:20.149Z,7.00
2023-03-27T18:08:47.100Z,6.80
2023-03-27T18:11:15.778Z,7.00
2023-03-27T18:13:43.003Z,7.20
2023-03-27T18:16:13.188Z,7.00
2023-03-27T18:18:40.781Z,6.90
2023-03-27T18:21:08.336Z,6.50
2023-03-27T18:23:37.673Z,6.50
2023-03-27T18:26:12.980Z,6.20
2023-03-27T18:28:39.792Z,6.30
2023-03-27T18:31:09.047Z,6.30
2023-03-27T18:33:36.731Z,6.30
2023-03-27T18:36:13.387Z,6.20
2023-03-27T18:38:41.849Z,6.40
2023-03-27T18:41:16.050Z,6.50
2023-03-27T18:43:43.043Z,6.50
2023-03-27T18:46:14.047Z,6.50
2023-03-27T18:48:41.918Z,6.50
2023-03-27T18:51:08.782Z,6.30
2023-03-27T18:53:35.836Z,6.10
2023-03-27T18:56:03.409Z,6.20
2023-03-27T18:58:39.099Z,6.40
2023-03-27T19:01:10.646Z,6.40
2023-03-27T19:03:39.112Z,6.30
2023-03-27T19:06:08.636Z,6.40
2023-03-27T19:08:38.068Z,6.50
2023-03-27T19:11:06.182Z,6.40
2023-03-27T19:13:33.037Z,6.30
2023-03-27T19:16:00.308Z,6.40
2023-03-27T19:18:30.018Z,6.20
2023-03-27T19:21:00.854Z,6.10
2023-03-27T19:23:28.429Z,6.00
2023-03-27T19:25:55.439Z,5.90
2023-03-27T19:28:22.245Z,5.90
2023-03-27T19:30:50.176Z,5.80
2023-03-27T19:33:17.052Z,5.70
2023-03-27T19:35:43.905Z,5.50
2023-03-27T19:38:11.305Z,5.60
2023-03-27T19:40:38.104Z,5.80
2023-03-27T19:43:04.886Z,5.60
2023-03-27T19:45:32.048Z,5.50
2023-03-27T19:47:58.852Z,5.50
2023-03-27T19:50:26.018Z,5.50
2023-03-27T19:53:05.495Z,5.70
2023-03-27T19:55:34.804Z,5.60
2023-03-27T19:58:01.682Z,5.50
2023-03-27T20:00:30.134Z,5.50
2023-03-27T20:02:58.503Z,5.60
2023-03-27T20:05:25.984Z,5.70
2023-03-27T20:07:52.750Z,5.80
2023-03-27T20:10:21.376Z,5.90
2023-03-27T20:12:48.558Z,5.60
2023-03-27T20:15:15.591Z,5.50
2023-03-27T20:17:42.996Z,5.40
2023-03-27T20:20:11.273Z,5.40
2023-03-27T20:22:50.112Z,5.30
2023-03-27T20:25:23.745Z,5.10
2023-03-27T20:27:50.866Z,5.10
2023-03-27T20:30:17.770Z,5.20
2023-03-27T20:32:44.628Z,5.30
2023-03-27T20:35:23.098Z,5.00
2023-03-27T20:37:56.281Z,5.00
2023-03-27T20:40:23.909Z,4.90
2023-03-27T20:43:02.857Z,5.10
2023-03-27T20:45:31.205Z,5.20
2023-03-27T20:48:04.068Z,5.10
2023-03-27T20:50:35.135Z,5.00
2023-03-27T20:53:04.559Z,4.80
2023-03-27T20:55:34.604Z,4.80
2023-03-27T20:58:06.705Z,4.80
2023-03-27T21:00:35.723Z,4.60
2023-03-27T21:03:02.792Z,4.80
2023-03-27T21:05:30.019Z,4.90
2023-03-27T21:07:56.970Z,4.90
2023-03-27T21:10:24.961Z,4.60
2023-03-27T21:12:53.793Z,4.70
2023-03-27T21:15:20.591Z,4.50
2023-03-27T21:17:47.456Z,4.30
2023-03-27T21:20:14.388Z,4.30
2023-03-27T21:22:44.139Z,4.40
2023-03-27T21:25:11.061Z,4.40
2023-03-27T21:27:38.139Z,4.50
2023-03-27T21:30:06.263Z,4.50
2023-03-27T21:32:33.164Z,4.60
2023-03-27T21:35:00.050Z,4.60
2023-03-27T21:37:26.844Z,4.40
2023-03-27T21:39:53.645Z,4.50
2023-03-27T21:42:21.869Z,4.50
2023-03-27T21:44:53.647Z,4.40
2023-03-27T21:47:22.712Z,4.40
2023-03-27T21:49:49.542Z,4.40
2023-03-27T21:52:16.394Z,4.60
2023-03-27T21:54:49.998Z,4.60
2023-03-27T21:57:27.083Z,4.70
2023-03-27T21:59:53.946Z,4.50
2023-03-27T22:02:20.780Z,4.50
2023-03-27T22:04:47.609Z,4.50
2023-03-27T22:07:14.493Z,4.30
2023-03-27T22:09:44.328Z,4.30
2023-03-27T22:12:11.155Z,4.40
2023-03-27T22:14:37.984Z,4.30
2023-03-27T22:17:05.195Z,4.30
2023-03-27T22:19:32.091Z,4.40
2023-03-27T22:21:59.000Z,4.40
2023-03-27T22:24:25.839Z,4.40
2023-03-27T22:26:52.590Z,4.50
2023-03-27T22:29:19.491Z,4.60
2023-03-27T22:31:46.298Z,4.70
2023-03-27T22:34:13.150Z,4.80
2023-03-27T22:36:40.032Z,4.90
2023-03-27T22:39:06.811Z,4.90
2023-03-27T22:41:33.536Z,4.80
2023-03-27T22:44:01.801Z,4.80
2023-03-27T22:46:28.789Z,4.90
2023-03-27T22:48:57.608Z,5.00
2023-03-27T22:51:25.379Z,5.10
2023-03-27T22:53:52.185Z,5.10
2023-03-27T22:56:19.063Z,5.20
2023-03-27T22:58:46.271Z,5.30
2023-03-27T23:01:13.397Z,5.30
2023-03-27T23:03:40.770Z,5.30
2023-03-27T23:06:08.112Z,5.20
2023-03-27T23:08:35.071Z,5.20
2023-03-27T23:11:04.662Z,5.20
2023-03-27T23:13:34.084Z,5.10
2023-03-27T23:16:01.673Z,5.10
2023-03-27T23:18:28.655Z,5.10
2023-03-27T23:20:58.220Z,5.10
2023-03-27T23:23:26.504Z,5.00
2023-03-27T23:25:54.375Z,5.10
2023-03-27T23:28:21.843Z,5.10
2023-03-27T23:30:59.693Z,5.10
2023-03-27T23:33:27.740Z,5.10
2023-03-27T23:36:04.590Z,5.00
2023-03-27T23:38:31.606Z,5.00
2023-03-27T23:41:00.302Z,5.00
2023-03-27T23:43:28.600Z,5.00
2023-03-27T23:45:56.313Z,5.00
2023-03-27T23:48:23.585Z,5.00
2023-03-27T23:50:51.838Z,5.00
2023-03-27T23:53:20.402Z,4.90
2023-03-27T23:55:47.340Z,4.90
2023-03-27T23:58:14.180Z,4.90
